Time;durP1;ratioP1;P1;durP2;ratioP2;P2;SDS_P1;SDS_P2;PMS_P1;PMS_P2;Temp;Humidity;BMP_temperature;BMP_pressure;BME280_temperature;BME280_humidity;BME280_pressure;Samples;Min_cycle;Max_cycle;Signal;HPM_P1;HPM_P2
2022/05/06 00:01:57;;;;;;;;;;;;;;;20.64;49.27;102313.19;7283478;19;151885;-59
2022/05/06 00:04:24;;;;;;;;;;;;;;;20.61;49.36;102319.38;7290265;19;152591;-58
2022/05/06 00:06:52;;;;;;;;;;;;;;;20.64;49.28;102317.94;7283810;19;151915;-58
2022/05/06 00:09:20;;;;;;;;;;;;;;;20.65;49.64;102314.03;7284461;19;153005;-59
2022/05/06 00:11:47;;;;;;;;;;;;;;;20.66;49.61;102312.91;7280316;19;153288;-59
2022/05/06 00:14:13;;;;;;;;;;;;;;;20.67;49.71;102312.63;7282826;19;151807;-59
2022/05/06 00:16:40;;;;;;;;;;;;;;;20.69;49.69;102309.53;7280877;19;153679;-59
2022/05/06 00:19:07;;;;;;;;;;;;;;;20.68;50.13;102305.88;7279715;19;154196;-59
2022/05/06 00:21:34;;;;;;;;;;;;;;;20.69;49.93;102317.97;7279844;19;152125;-59
2022/05/06 00:24:00;;;;;;;;;;;;;;;20.69;49.86;102307.59;7283448;19;153182;-58
2022/05/06 00:26:31;;;;;;;;;;;;;;;20.69;49.80;102303.94;7289352;19;154130;-59
2022/05/06 00:28:58;;;;;;;;;;;;;;;20.67;50.12;102307.00;7283987;19;153153;-57
2022/05/06 00:31:25;;;;;;;;;;;;;;;20.68;49.83;102307.84;7282037;19;153973;-59
2022/05/06 00:33:52;;;;;;;;;;;;;;;20.70;49.70;102303.66;7283169;19;151763;-59
2022/05/06 00:36:19;;;;;;;;;;;;;;;20.70;49.84;102309.28;7280143;19;153464;-58
2022/05/06 00:38:45;;;;;;;;;;;;;;;20.68;50.17;102291.84;7282161;19;154227;-59
2022/05/06 00:41:12;;;;;;;;;;;;;;;20.70;49.92;102300.00;7281804;19;151950;-59
2022/05/06 00:43:40;;;;;;;;;;;;;;;20.71;50.02;102304.50;7281581;19;153044;-58
2022/05/06 00:46:11;;;;;;;;;;;;;;;20.70;50.28;102300.00;7282173;19;154207;-58
2022/05/06 00:48:40;;;;;;;;;;;;;;;20.70;50.03;102302.81;7288561;19;152499;-58
2022/05/06 00:51:08;;;;;;;;;;;;;;;20.69;50.46;102296.34;7280126;19;153228;-59
2022/05/06 00:53:36;;;;;;;;;;;;;;;20.69;50.38;102296.34;7281596;19;152257;-59
2022/05/06 00:56:04;;;;;;;;;;;;;;;20.71;50.37;102296.94;7282718;19;153521;-59
2022/05/06 00:58:31;;;;;;;;;;;;;;;20.71;50.34;102296.09;7282303;19;153341;-58
2022/05/06 01:00:58;;;;;;;;;;;;;;;20.71;50.47;102301.69;7280126;19;151923;-58
2022/05/06 01:03:25;;;;;;;;;;;;;;;20.71;50.50;102301.69;7279866;19;153226;-58
2022/05/06 01:05:52;;;;;;;;;;;;;;;20.69;50.27;102307.59;7281527;19;155107;-59
2022/05/06 01:08:19;;;;;;;;;;;;;;;20.71;50.24;102290.47;7279892;19;152336;-59
2022/05/06 01:10:47;;;;;;;;;;;;;;;20.71;50.19;102304.50;7287990;19;153193;-59
2022/05/06 01:13:14;;;;;;;;;;;;;;;20.71;50.20;102302.56;7279207;19;152088;-58
2022/05/06 01:15:41;;;;;;;;;;;;;;;20.71;50.17;102302.56;7277755;19;152772;-58
2022/05/06 01:18:10;;;;;;;;;;;;;;;20.72;50.19;102304.22;7280016;19;155214;-58
2022/05/06 01:20:38;;;;;;;;;;;;;;;20.72;50.37;102309.81;7282154;19;151764;-59
2022/05/06 01:23:05;;;;;;;;;;;;;;;20.72;50.67;102298.59;7279655;19;153113;-58
2022/05/06 01:25:32;;;;;;;;;;;;;;;20.72;50.13;102304.22;7279469;19;153962;-57
2022/05/06 01:28:03;;;;;;;;;;;;;;;20.72;50.29;102303.38;7281542;19;151766;-58
2022/05/06 01:30:31;;;;;;;;;;;;;;;20.71;50.20;102305.34;7281367;19;152664;-58
2022/05/06 01:32:59;;;;;;;;;;;;;;;20.72;50.27;102306.16;7288581;19;151923;-58
2022/05/06 01:35:27;;;;;;;;;;;;;;;20.71;50.81;102310.97;7278020;19;152716;-58
2022/05/06 01:37:56;;;;;;;;;;;;;;;20.71;50.60;102308.16;7278292;19;154604;-58
2022/05/06 01:40:24;;;;;;;;;;;;;;;20.71;50.80;102302.56;7279219;19;151502;-59
2022/05/06 01:42:53;;;;;;;;;;;;;;;20.72;50.85;102304.22;7279987;19;152559;-59
2022/05/06 01:45:22;;;;;;;;;;;;;;;20.73;50.87;102302.25;7280665;19;154363;-59
2022/05/06 01:47:51;;;;;;;;;;;;;;;20.73;50.79;102305.91;7281429;19;152672;-59
2022/05/06 01:50:19;;;;;;;;;;;;;;;20.73;50.73;102302.25;7280452;19;152588;-59
2022/05/06 01:52:48;;;;;;;;;;;;;;;20.72;50.93;102303.38;7287082;19;154207;-59
2022/05/06 01:55:15;;;;;;;;;;;;;;;20.72;50.88;102304.22;7279224;19;153258;-59
2022/05/06 01:57:42;;;;;;;;;;;;;;;20.72;50.95;102303.38;7279543;19;153700;-58
2022/05/06 02:00:09;;;;;;;;;;;;;;;20.72;51.23;102298.59;7279396;19;152242;-58
2022/05/06 02:02:36;;;;;;;;;;;;;;;20.74;51.30;102312.38;7276903;19;152714;-59
2022/05/06 02:07:39;;;;;;;;;;;;;;;20.72;51.38;102307.03;7279037;19;151949;-60
2022/05/06 02:10:06;;;;;;;;;;;;;;;20.74;51.45;102303.94;7279789;19;152605;-59
2022/05/06 02:12:33;;;;;;;;;;;;;;;20.73;51.19;102305.91;7279135;19;154163;-59
2022/05/06 02:15:00;;;;;;;;;;;;;;;20.73;51.11;102307.88;7285984;19;153815;-60
2022/05/06 02:17:27;;;;;;;;;;;;;;;20.73;51.23;102316.28;7279082;19;153941;-60
2022/05/06 02:19:53;;;;;;;;;;;;;;;20.71;51.14;102310.97;7279545;19;151838;-60
2022/05/06 02:22:21;;;;;;;;;;;;;;;20.72;51.11;102312.63;7275961;19;153417;-58
2022/05/06 02:24:47;;;;;;;;;;;;;;;20.71;51.34;102305.34;7277084;19;154178;-59
2022/05/06 02:27:14;;;;;;;;;;;;;;;20.71;51.54;102316.59;7280178;19;152187;-59
2022/05/06 02:33:12;;;;;;;;;;;;;;;20.71;51.46;102313.78;7280055;19;153119;-58
2022/05/06 02:35:04;;;;;;;;;;;;;;;20.74;51.64;102306.75;7279449;19;152119;-59
2022/05/06 02:37:30;;;;;;;;;;;;;;;20.72;51.55;102307.03;7283437;19;153626;-59
2022/05/06 02:39:57;;;;;;;;;;;;;;;20.70;51.73;102303.66;7279207;19;152153;-58
2022/05/06 02:42:24;;;;;;;;;;;;;;;20.71;51.72;102310.97;7278957;19;153100;-58
2022/05/06 02:44:51;;;;;;;;;;;;;;;20.70;51.51;102303.66;7278199;19;151948;-59
2022/05/06 02:47:17;;;;;;;;;;;;;;;20.70;51.71;102320.50;7281560;19;151942;-59
2022/05/06 02:49:44;;;;;;;;;;;;;;;20.69;51.73;102317.97;7284585;19;152784;-59
2022/05/06 02:52:11;;;;;;;;;;;;;;;20.71;51.72;102315.75;7280787;19;153310;-59
2022/05/06 02:54:37;;;;;;;;;;;;;;;20.69;51.53;102316.00;7286222;19;151666;-58
2022/05/06 02:57:04;;;;;;;;;;;;;;;20.70;51.63;102320.50;7286178;19;153957;-59
2022/05/06 02:59:31;;;;;;;;;;;;;;;20.70;51.51;102314.91;7292458;19;153568;-58
2022/05/06 03:01:58;;;;;;;;;;;;;;;20.70;51.65;102322.47;7282206;19;155545;-58
2022/05/06 03:04:25;;;;;;;;;;;;;;;20.70;51.82;102323.31;7281360;19;153725;-59
2022/05/06 03:06:52;;;;;;;;;;;;;;;20.70;51.67;102330.91;7286648;19;151569;-59
2022/05/06 03:09:19;;;;;;;;;;;;;;;20.69;52.03;102335.66;7286344;19;152807;-59
2022/05/06 03:11:46;;;;;;;;;;;;;;;20.68;51.42;102333.97;7281495;19;153414;-60
2022/05/06 03:14:12;;;;;;;;;;;;;;;20.68;51.83;102330.31;7284803;19;151698;-59
2022/05/06 03:16:39;;;;;;;;;;;;;;;20.67;51.76;102329.47;7284311;19;152749;-60
2022/05/06 03:19:06;;;;;;;;;;;;;;;20.70;51.36;102342.13;7284804;19;153464;-59
2022/05/06 03:21:34;;;;;;;;;;;;;;;20.67;51.43;102335.09;7292008;19;152007;-59
2022/05/06 03:24:01;;;;;;;;;;;;;;;20.68;51.59;102333.97;7282118;19;153964;-59
2022/05/06 03:26:27;;;;;;;;;;;;;;;20.69;51.49;102329.22;7286440;19;151898;-59
2022/05/06 03:28:57;;;;;;;;;;;;;;;20.68;51.48;102325.56;7285072;19;153785;-60
2022/05/06 03:31:25;;;;;;;;;;;;;;;20.68;51.55;102330.31;7283716;19;154139;-60
2022/05/06 03:33:54;;;;;;;;;;;;;;;20.67;51.36;102325.84;7282907;19;151986;-60
2022/05/06 03:36:21;;;;;;;;;;;;;;;20.70;51.87;102316.84;7283009;19;151913;-58
2022/05/06 03:38:48;;;;;;;;;;;;;;;20.69;51.51;102318.81;7281509;19;153639;-58
2022/05/06 03:41:14;;;;;;;;;;;;;;;20.67;51.58;102323.03;7292533;19;151778;-57
2022/05/06 03:43:41;;;;;;;;;;;;;;;20.65;51.68;102330.88;7281915;19;153977;-58
2022/05/06 03:46:10;;;;;;;;;;;;;;;20.65;51.85;102326.13;7284770;19;151923;-59
2022/05/06 03:48:37;;;;;;;;;;;;;;;20.65;51.48;102325.25;7284094;19;153600;-58
2022/05/06 03:53:44;;;;;;;;;;;;;;;20.63;51.80;102319.91;7283853;19;152004;-58
2022/05/06 03:56:11;;;;;;;;;;;;;;;20.64;51.79;102320.75;7282602;19;152942;-57
2022/05/06 03:58:37;;;;;;;;;;;;;;;20.64;51.47;102327.22;7280269;19;154062;-58
2022/05/06 04:01:04;;;;;;;;;;;;;;;20.64;51.60;102317.94;7284429;19;152025;-59
2022/05/06 04:03:34;;;;;;;;;;;;;;;20.62;51.97;102329.47;7289152;19;153743;-59
2022/05/06 04:06:01;;;;;;;;;;;;;;;20.62;51.68;102321.06;7284248;19;152400;-59
2022/05/06 04:08:27;;;;;;;;;;;;;;;20.59;51.58;102313.16;7283838;19;152799;-58
2022/05/06 04:10:54;;;;;;;;;;;;;;;20.60;51.44;102323.28;7282595;19;153748;-59
2022/05/06 04:13:21;;;;;;;;;;;;;;;20.61;51.64;102316.56;7283366;19;153094;-58
2022/05/06 04:15:48;;;;;;;;;;;;;;;20.61;51.50;102316.56;7281145;19;153153;-59
2022/05/06 04:18:15;;;;;;;;;;;;;;;20.60;52.05;102319.63;7279868;19;153951;-58
2022/05/06 04:25:56;;;;;;;;;;;;;;;20.60;51.95;102302.78;7289746;19;154642;-59
2022/05/06 04:28:23;;;;;;;;;;;;;;;20.59;51.76;102313.16;7283994;19;152584;-57
2022/05/06 04:30:51;;;;;;;;;;;;;;;20.58;51.96;102310.66;7282007;19;153909;-59
2022/05/06 04:33:18;;;;;;;;;;;;;;;20.58;52.00;102310.66;7281675;19;152258;-59
2022/05/06 04:35:45;;;;;;;;;;;;;;;20.57;52.21;102312.63;7280553;19;154230;-57
2022/05/06 04:38:12;;;;;;;;;;;;;;;20.58;52.06;102314.28;7281779;19;154409;-58
2022/05/06 04:40:40;;;;;;;;;;;;;;;20.56;52.19;102315.69;7282819;19;152461;-58
2022/05/06 04:43:07;;;;;;;;;;;;;;;20.56;52.59;102315.69;7281741;19;152455;-59
2022/05/06 04:45:38;;;;;;;;;;;;;;;20.57;52.14;102325.81;7281508;19;153192;-59
2022/05/06 04:48:05;;;;;;;;;;;;;;;20.56;52.68;102327.75;7288540;19;152282;-59
2022/05/06 04:50:33;;;;;;;;;;;;;;;20.54;52.55;102332.78;7282014;19;153698;-59
2022/05/06 04:53:01;;;;;;;;;;;;;;;20.55;52.51;102328.88;7281806;19;151922;-58
2022/05/06 04:55:28;;;;;;;;;;;;;;;20.55;52.71;102330.84;7282772;19;152530;-58
2022/05/06 04:57:55;;;;;;;;;;;;;;;20.57;52.28;102329.47;7280591;19;153913;-58
2022/05/06 05:00:22;;;;;;;;;;;;;;;20.54;52.50;102330.00;7281577;19;151752;-58
2022/05/06 05:02:48;;;;;;;;;;;;;;;20.54;52.52;102326.34;7283356;19;152809;-59
2022/05/06 05:05:15;;;;;;;;;;;;;;;20.52;52.14;102329.44;7280758;19;154318;-59
2022/05/06 05:07:42;;;;;;;;;;;;;;;20.56;52.76;102338.16;7282192;19;152304;-58
2022/05/06 05:10:09;;;;;;;;;;;;;;;20.54;52.42;102341.22;7284661;19;152907;-58
2022/05/06 05:12:36;;;;;;;;;;;;;;;20.53;52.60;102336.75;7282025;19;151775;-59
2022/05/06 05:15:03;;;;;;;;;;;;;;;20.54;52.29;102340.38;7280362;19;153461;-59
2022/05/06 05:17:30;;;;;;;;;;;;;;;20.53;52.57;102333.94;7280743;19;155298;-58
2022/05/06 05:19:57;;;;;;;;;;;;;;;20.53;52.48;102333.09;7279420;19;152169;-58
2022/05/06 05:22:25;;;;;;;;;;;;;;;20.51;52.51;102332.50;7281463;19;153510;-58
2022/05/06 05:24:51;;;;;;;;;;;;;;;20.52;52.25;102339.81;7276347;19;153599;-59
2022/05/06 05:27:18;;;;;;;;;;;;;;;20.52;52.27;102343.47;7279765;19;151835;-58
2022/05/06 05:29:45;;;;;;;;;;;;;;;20.55;52.31;102351.34;7281505;19;152588;-59
2022/05/06 05:32:12;;;;;;;;;;;;;;;20.61;52.80;102353.06;7286137;19;152840;-59
2022/05/06 05:34:41;;;;;;;;;;;;;;;20.63;53.01;102348.00;7281996;19;152511;-58
2022/05/06 05:37:09;;;;;;;;;;;;;;;20.67;53.37;102351.94;7278687;19;155352;-58
2022/05/06 05:39:35;;;;;;;;;;;;;;;20.71;53.19;102358.72;7282019;19;151876;-59
2022/05/06 05:42:06;;;;;;;;;;;;;;;20.76;53.34;102350.28;7278550;19;152841;-59
2022/05/06 05:49:54;;;;;;;;;;;;;;;21.00;52.86;102346.97;7281396;19;152816;-58
2022/05/06 05:52:22;;;;;;;;;;;;;;;21.07;53.00;102351.22;7286087;19;154863;-58
2022/05/06 05:54:48;;;;;;;;;;;;;;;21.15;52.80;102347.06;7279309;19;152753;-58
2022/05/06 05:57:15;;;;;;;;;;;;;;;21.22;52.58;102351.28;7277358;19;153929;-58
2022/05/06 05:59:43;;;;;;;;;;;;;;;21.30;52.63;102347.91;7279942;19;152016;-59
2022/05/06 06:02:11;;;;;;;;;;;;;;;21.39;52.01;102356.66;7281260;19;153439;-59
2022/05/06 06:04:39;;;;;;;;;;;;;;;21.47;51.88;102355.25;7276025;19;153195;-59
2022/05/06 06:07:06;;;;;;;;;;;;;;;21.54;51.70;102355.78;7279852;19;152287;-59
2022/05/06 06:09:32;;;;;;;;;;;;;;;21.61;51.02;102353.56;7279121;19;152654;-58
2022/05/06 06:11:59;;;;;;;;;;;;;;;21.69;51.57;102358.63;7278275;19;153418;-60
2022/05/06 06:14:26;;;;;;;;;;;;;;;21.74;51.19;102367.06;7283832;19;151813;-58
2022/05/06 06:16:53;;;;;;;;;;;;;;;21.82;50.57;102369.28;7276797;19;154114;-59
2022/05/06 06:19:20;;;;;;;;;;;;;;;21.90;51.36;102365.06;7277872;19;152390;-58
2022/05/06 06:21:47;;;;;;;;;;;;;;;22.02;51.23;102368.47;7283973;19;153476;-59
2022/05/06 06:24:13;;;;;;;;;;;;;;;22.06;50.10;102364.78;7284005;19;153798;-59
2022/05/06 06:26:40;;;;;;;;;;;;;;;22.10;49.49;102367.88;7287201;19;152328;-60
2022/05/06 06:29:07;;;;;;;;;;;;;;;21.95;46.85;102365.94;7285008;19;153213;-60
2022/05/06 06:31:34;;;;;;;;;;;;;;;21.92;47.51;102360.84;7284966;19;152636;-60
2022/05/06 06:34:01;;;;;;;;;;;;;;;21.97;47.14;102360.03;7285797;19;151822;-59
2022/05/06 06:36:28;;;;;;;;;;;;;;;22.00;47.20;102365.06;7293456;19;154298;-60
2022/05/06 06:38:54;;;;;;;;;;;;;;;22.02;47.31;102368.47;7283945;19;151988;-60
2022/05/06 06:41:21;;;;;;;;;;;;;;;22.04;47.20;102371.81;7286238;19;152672;-60
2022/05/06 06:43:49;;;;;;;;;;;;;;;22.04;46.62;102363.38;7283724;19;153845;-59
2022/05/06 06:46:16;;;;;;;;;;;;;;;22.06;46.73;102363.94;7286203;19;151739;-60
2022/05/06 06:48:43;;;;;;;;;;;;;;;22.06;46.63;102359.16;7286604;19;153466;-60
2022/05/06 06:51:09;;;;;;;;;;;;;;;22.06;46.74;102359.16;7281968;19;154110;-60
2022/05/06 06:53:36;;;;;;;;;;;;;;;22.08;46.26;102367.31;7283525;19;151715;-60
2022/05/06 06:56:03;;;;;;;;;;;;;;;22.12;46.66;102363.63;7283544;19;153176;-60
2022/05/06 06:58:30;;;;;;;;;;;;;;;21.95;45.57;102360.28;7292121;19;154102;-59
2022/05/06 07:00:57;;;;;;;;;;;;;;;21.85;45.90;102362.28;7283088;19;153128;-60
2022/05/06 07:03:24;;;;;;;;;;;;;;;21.96;45.72;102364.81;7285038;19;153331;-59
2022/05/06 07:13:42;;;;;;;;;;;;;;;22.03;45.86;102356.91;7283412;19;151677;-59
2022/05/06 07:16:09;;;;;;;;;;;;;;;22.02;46.03;102355.25;7284960;19;153155;-59
2022/05/06 07:18:37;;;;;;;;;;;;;;;22.02;45.79;102360.88;7285387;19;152166;-60
2022/05/06 07:21:03;;;;;;;;;;;;;;;22.03;45.75;102359.72;7291771;19;151567;-59
2022/05/06 07:23:30;;;;;;;;;;;;;;;22.02;45.93;102358.06;7281164;19;153475;-60
2022/05/06 07:25:57;;;;;;;;;;;;;;;22.01;45.94;102353.53;7285776;19;151738;-60
2022/05/06 07:28:25;;;;;;;;;;;;;;;22.02;45.86;102358.06;7284936;19;153463;-60
2022/05/06 07:30:52;;;;;;;;;;;;;;;22.05;45.91;102353.81;7281320;19;152234;-60
2022/05/06 07:33:19;;;;;;;;;;;;;;;22.06;45.87;102356.34;7282248;19;151761;-60
2022/05/06 07:35:45;;;;;;;;;;;;;;;22.07;45.92;102348.75;7281334;19;152640;-59
2022/05/06 07:38:12;;;;;;;;;;;;;;;22.02;45.48;102343.13;7283462;19;153318;-58
2022/05/06 07:40:39;;;;;;;;;;;;;;;21.98;45.56;102347.66;7284984;19;151495;-58
2022/05/06 07:43:10;;;;;;;;;;;;;;;21.94;45.59;102352.97;7290563;19;152729;-59
2022/05/06 07:45:38;;;;;;;;;;;;;;;21.93;45.69;102345.69;7281963;19;152054;-59
2022/05/06 07:48:08;;;;;;;;;;;;;;;21.91;45.53;102347.03;7284186;19;152698;-58
2022/05/06 07:50:37;;;;;;;;;;;;;;;21.91;45.92;102341.41;7283455;19;154677;-58
2022/05/06 07:53:04;;;;;;;;;;;;;;;21.88;45.61;102345.66;7284140;19;151987;-59
2022/05/06 07:55:35;;;;;;;;;;;;;;;21.86;45.57;102341.41;7281986;19;151931;-59
2022/05/06 07:58:04;;;;;;;;;;;;;;;21.84;45.75;102338.91;7280263;19;153392;-59
2022/05/06 08:00:31;;;;;;;;;;;;;;;21.83;45.73;102331.59;7283996;19;152172;-59
2022/05/06 08:05:37;;;;;;;;;;;;;;;21.81;45.44;102321.72;7279970;19;153662;-58
2022/05/06 08:08:04;;;;;;;;;;;;;;;21.81;45.52;102321.72;7280779;19;152668;-59
2022/05/06 08:10:31;;;;;;;;;;;;;;;21.78;45.70;102322.31;7282946;19;153538;-59
2022/05/06 08:12:58;;;;;;;;;;;;;;;21.78;45.65;102313.88;7282085;19;152048;-58
2022/05/06 08:15:25;;;;;;;;;;;;;;;21.75;45.58;102312.47;7280396;19;153142;-59
2022/05/06 08:17:52;;;;;;;;;;;;;;;21.73;46.02;102318.38;7279071;19;153798;-59
2022/05/06 08:20:19;;;;;;;;;;;;;;;21.72;45.80;102301.78;7282663;19;151910;-58
2022/05/06 08:22:46;;;;;;;;;;;;;;;21.70;45.83;102302.06;7280573;19;153571;-59
2022/05/06 08:25:13;;;;;;;;;;;;;;;21.70;46.06;102304.03;7286317;19;153915;-58
2022/05/06 08:28:00;;;;;;;;;;;;;;;21.67;45.61;102310.22;7280797;19;152890;-58
2022/05/06 08:30:27;;;;;;;;;;;;;;;21.66;45.96;102311.38;7279791;19;153476;-59
2022/05/06 08:32:54;;;;;;;;;;;;;;;21.63;46.07;102318.38;7282740;19;151925;-59
2022/05/06 08:35:21;;;;;;;;;;;;;;;21.62;45.60;102313.88;7281351;19;152971;-59
2022/05/06 08:37:48;;;;;;;;;;;;;;;21.59;45.84;102314.44;7280039;19;153761;-59
2022/05/06 08:40:17;;;;;;;;;;;;;;;21.59;45.83;102311.63;7282933;19;151949;-59
2022/05/06 08:42:45;;;;;;;;;;;;;;;21.59;45.60;102308.81;7280611;19;152894;-59
2022/05/06 08:53:05;;;;;;;;;;;;;;;21.55;45.92;102304.91;7282490;19;151874;-59
2022/05/06 08:55:32;;;;;;;;;;;;;;;21.56;45.62;102294.50;7280550;19;153711;-59
2022/05/06 08:57:59;;;;;;;;;;;;;;;21.55;45.72;102299.28;7279255;19;154228;-59
2022/05/06 09:00:32;;;;;;;;;;;;;;;21.53;45.69;102309.94;7280894;19;151950;-58
2022/05/06 09:02:58;;;;;;;;;;;;;;;21.52;45.98;102299.00;7279214;19;154019;-59
2022/05/06 09:05:25;;;;;;;;;;;;;;;21.52;45.57;102301.81;7277763;19;153855;-59
2022/05/06 09:07:54;;;;;;;;;;;;;;;21.52;45.56;102311.09;7280762;19;151688;-59
2022/05/06 09:10:21;;;;;;;;;;;;;;;21.53;45.46;102303.50;7288438;19;153689;-58
2022/05/06 09:12:56;;;;;;;;;;;;;;;21.52;45.63;102297.03;7280231;19;151890;-59
2022/05/06 09:18:03;;;;;;;;;;;;;;;21.52;45.32;102294.22;7279493;19;153961;-59
2022/05/06 09:20:31;;;;;;;;;;;;;;;21.51;45.35;102303.78;7279126;19;151973;-58
2022/05/06 09:23:00;;;;;;;;;;;;;;;21.52;45.43;102297.03;7280818;19;154395;-59
2022/05/06 09:25:37;;;;;;;;;;;;;;;21.53;45.22;102295.06;7276832;19;153609;-60
2022/05/06 09:28:06;;;;;;;;;;;;;;;21.52;45.58;102299.84;7266026;19;152376;-59
2022/05/06 09:30:34;;;;;;;;;;;;;;;21.53;45.35;102295.88;7255497;19;154453;-59
2022/05/06 09:33:01;;;;;;;;;;;;;;;21.53;45.17;102298.69;7280823;19;153333;-59
2022/05/06 09:35:31;;;;;;;;;;;;;;;21.54;44.95;102291.94;7279464;19;152540;-59
2022/05/06 09:38:02;;;;;;;;;;;;;;;21.54;44.88;102291.94;7277924;19;154185;-60
2022/05/06 09:40:30;;;;;;;;;;;;;;;21.55;44.97;102282.41;7280351;19;151701;-59
2022/05/06 09:42:59;;;;;;;;;;;;;;;21.60;44.71;102284.38;7277455;19;153936;-60
2022/05/06 09:45:39;;;;;;;;;;;;;;;21.63;44.66;102286.59;7275689;19;154005;-59
2022/05/06 09:48:09;;;;;;;;;;;;;;;21.65;44.32;102282.38;7278420;19;152141;-60
2022/05/06 09:50:38;;;;;;;;;;;;;;;21.67;44.26;102282.94;7277995;19;151836;-59
2022/05/06 09:53:07;;;;;;;;;;;;;;;21.72;44.65;102280.13;7278086;19;153743;-59
2022/05/06 09:55:36;;;;;;;;;;;;;;;21.75;44.55;102278.72;7288402;19;151562;-59
2022/05/06 09:58:03;;;;;;;;;;;;;;;21.77;44.26;102267.16;7281853;19;152491;-59
2022/05/06 10:00:32;;;;;;;;;;;;;;;21.78;44.17;102272.50;7284775;19;153406;-60
2022/05/06 10:03:00;;;;;;;;;;;;;;;21.80;44.20;102264.66;7283384;19;154494;-59
2022/05/06 10:05:28;;;;;;;;;;;;;;;21.81;44.29;102263.50;7284105;19;154181;-59
2022/05/06 10:07:57;;;;;;;;;;;;;;;21.84;43.94;102254.50;7285948;19;151486;-59
2022/05/06 10:10:26;;;;;;;;;;;;;;;21.83;43.18;102252.81;7285567;19;153656;-60
2022/05/06 10:12:56;;;;;;;;;;;;;;;21.85;43.63;102253.34;7282647;19;154003;-60
2022/05/06 10:15:24;;;;;;;;;;;;;;;21.86;43.20;102257.00;7291964;19;152496;-59
2022/05/06 10:17:52;;;;;;;;;;;;;;;21.88;43.41;102266.88;7282748;19;154331;-61
2022/05/06 10:20:29;;;;;;;;;;;;;;;21.89;42.83;102265.75;7285573;19;151603;-60
2022/05/06 10:22:59;;;;;;;;;;;;;;;21.88;42.83;102266.03;7286511;19;154057;-59
2022/05/06 10:25:36;;;;;;;;;;;;;;;21.90;42.61;102269.38;7283495;19;153583;-59
2022/05/06 10:33:48;;;;;;;;;;;;;;;21.94;42.33;102270.56;7280055;19;154401;-59
2022/05/06 10:36:34;;;;;;;;;;;;;;;21.94;42.06;102271.38;7283828;19;151661;-60
2022/05/06 10:39:13;;;;;;;;;;;;;;;21.94;42.34;102264.91;7289951;19;153329;-59
2022/05/06 10:41:58;;;;;;;;;;;;;;;21.95;41.74;102264.63;7284448;19;151902;-59
2022/05/06 10:44:34;;;;;;;;;;;;;;;21.95;42.35;102263.78;7283449;19;153573;-60
2022/05/06 10:47:03;;;;;;;;;;;;;;;21.96;42.33;102276.72;7280784;19;153468;-59
2022/05/06 10:49:30;;;;;;;;;;;;;;;21.96;42.13;102257.88;7283572;19;152259;-60
2022/05/06 10:52:06;;;;;;;;;;;;;;;22.01;42.23;102277.56;7285225;19;152691;-60
2022/05/06 10:54:33;;;;;;;;;;;;;;;22.01;42.44;102268.25;7283319;19;154225;-59
2022/05/06 10:57:09;;;;;;;;;;;;;;;21.99;42.11;102262.06;7283606;19;151687;-59
2022/05/06 10:59:45;;;;;;;;;;;;;;;21.97;41.68;102261.53;7282890;19;154308;-59
2022/05/06 11:02:13;;;;;;;;;;;;;;;21.94;41.55;102257.28;7287673;19;153915;-60
2022/05/06 11:04:41;;;;;;;;;;;;;;;21.97;41.89;102259.56;7284324;19;153872;-59
2022/05/06 11:07:11;;;;;;;;;;;;;;;21.98;41.14;102257.59;7278798;19;153581;-59
2022/05/06 11:09:38;;;;;;;;;;;;;;;21.96;41.02;102260.69;7284402;19;151727;-60
2022/05/06 11:12:06;;;;;;;;;;;;;;;21.95;40.93;102264.63;7284281;19;153530;-59
2022/05/06 11:14:33;;;;;;;;;;;;;;;21.99;41.09;102267.69;7282514;19;154796;-60
2022/05/06 11:17:11;;;;;;;;;;;;;;;22.00;40.95;102266.56;7281348;19;151756;-60
2022/05/06 11:19:39;;;;;;;;;;;;;;;22.00;40.80;102258.97;7281636;19;152110;-60
2022/05/06 11:22:07;;;;;;;;;;;;;;;21.99;40.71;102250.81;7282005;19;153267;-60
2022/05/06 11:24:34;;;;;;;;;;;;;;;21.99;40.83;102251.66;7293002;19;151555;-60
2022/05/06 11:27:10;;;;;;;;;;;;;;;22.01;40.71;102248.56;7277830;19;153106;-59
2022/05/06 11:29:43;;;;;;;;;;;;;;;22.03;41.04;102240.69;7285204;19;151841;-59
2022/05/06 11:32:19;;;;;;;;;;;;;;;22.04;40.69;102247.97;7281100;19;153379;-60
2022/05/06 11:34:55;;;;;;;;;;;;;;;22.04;41.02;102243.19;7279059;19;153395;-59
2022/05/06 11:37:23;;;;;;;;;;;;;;;22.02;40.11;102237.03;7281412;19;152105;-60
2022/05/06 11:39:51;;;;;;;;;;;;;;;22.02;40.43;102237.03;7280496;19;153181;-59
2022/05/06 11:42:19;;;;;;;;;;;;;;;22.03;40.30;102237.88;7280481;19;153280;-59
2022/05/06 11:47:33;;;;;;;;;;;;;;;22.02;40.54;102234.22;7286440;19;152387;-60
2022/05/06 11:50:00;;;;;;;;;;;;;;;22.04;40.59;102243.19;7278955;19;151927;-59
2022/05/06 11:52:27;;;;;;;;;;;;;;;22.04;40.10;102229.13;7280477;19;153440;-60
2022/05/06 11:54:54;;;;;;;;;;;;;;;22.04;40.48;102233.91;7282067;19;152651;-59
2022/05/06 11:57:21;;;;;;;;;;;;;;;22.04;40.45;102231.94;7283450;19;151778;-59
2022/05/06 11:59:48;;;;;;;;;;;;;;;22.06;40.37;102223.22;7283652;19;153584;-59
2022/05/06 12:02:15;;;;;;;;;;;;;;;22.07;40.12;102227.72;7281456;19;152611;-58
2022/05/06 12:04:42;;;;;;;;;;;;;;;22.08;39.93;102223.75;7281702;19;152099;-59
2022/05/06 12:07:09;;;;;;;;;;;;;;;22.06;40.43;102226.03;7281054;19;153438;-58
2022/05/06 12:09:43;;;;;;;;;;;;;;;22.05;40.25;102221.53;7286682;19;151681;-59
2022/05/06 12:12:10;;;;;;;;;;;;;;;22.04;40.36;102222.66;7280482;19;153455;-59
2022/05/06 12:14:38;;;;;;;;;;;;;;;22.06;39.96;102226.03;7278221;19;153645;-60
2022/05/06 12:17:10;;;;;;;;;;;;;;;22.05;39.92;102215.88;7280101;19;151597;-59
2022/05/06 12:19:37;;;;;;;;;;;;;;;22.05;40.18;102213.91;7280132;19;153157;-60
2022/05/06 12:22:04;;;;;;;;;;;;;;;22.05;40.06;102202.66;7282096;19;153355;-59
2022/05/06 12:24:41;;;;;;;;;;;;;;;22.06;39.54;102207.16;7284044;19;151913;-60
2022/05/06 12:27:08;;;;;;;;;;;;;;;22.06;39.55;102214.78;7280809;19;152897;-60
2022/05/06 12:29:37;;;;;;;;;;;;;;;22.02;39.91;102205.22;7289615;19;153317;-60
2022/05/06 12:32:04;;;;;;;;;;;;;;;22.04;39.97;102198.16;7283482;19;152744;-60
2022/05/06 12:34:32;;;;;;;;;;;;;;;22.04;40.05;102205.75;7282035;19;154061;-59
2022/05/06 12:37:10;;;;;;;;;;;;;;;22.02;39.73;102210.84;7281016;19;151846;-60
2022/05/06 12:39:46;;;;;;;;;;;;;;;22.05;39.53;102199.00;7279128;19;153422;-58
2022/05/06 12:42:13;;;;;;;;;;;;;;;22.02;39.53;102200.44;7281732;19;154784;-60
2022/05/06 12:44:39;;;;;;;;;;;;;;;22.04;39.97;102186.06;7283535;19;152672;-59
2022/05/06 12:49:39;;;;;;;;;;;;;;;22.03;39.69;102201.28;7278487;19;152883;-59
2022/05/06 12:50:05;;;;;;;;;;;;;;;22.01;39.45;102181.00;7280370;19;153610;-59
2022/05/06 12:52:33;;;;;;;;;;;;;;;22.03;39.38;102198.47;7290269;19;151581;-59
2022/05/06 12:55:00;;;;;;;;;;;;;;;22.03;39.59;102192.84;7281857;19;153238;-59
2022/05/06 12:57:28;;;;;;;;;;;;;;;22.03;39.49;102181.59;7281470;19;151729;-59
2022/05/06 12:59:55;;;;;;;;;;;;;;;22.00;39.82;102199.03;7283294;19;152661;-59
2022/05/06 13:02:23;;;;;;;;;;;;;;;22.00;39.69;102180.16;7281432;19;153485;-59
2022/05/06 13:04:50;;;;;;;;;;;;;;;22.00;39.70;102190.59;7282491;19;152264;-59
2022/05/06 13:07:17;;;;;;;;;;;;;;;21.98;39.23;102192.84;7280795;19;152944;-60
2022/05/06 13:09:44;;;;;;;;;;;;;;;21.96;39.72;102186.66;7280546;19;153211;-60
2022/05/06 13:12:12;;;;;;;;;;;;;;;21.93;39.04;102174.03;7282701;19;151912;-60
2022/05/06 13:14:40;;;;;;;;;;;;;;;21.93;39.43;102167.56;7285178;19;153532;-60
2022/05/06 13:17:07;;;;;;;;;;;;;;;21.91;39.66;102176.25;7283414;19;151952;-59
2022/05/06 13:19:34;;;;;;;;;;;;;;;21.92;39.48;102179.91;7281794;19;153126;-59
2022/05/06 13:22:01;;;;;;;;;;;;;;;21.91;39.76;102172.56;7280655;19;153315;-59